sensor_id;sensor_type;location;lat;lon;timestamp;P1;durP1;ratioP1;P2;durP2;ratioP2
5295;SDS011;2670;42.720;23.336;2024-01-07T00:00:15;69.73;;;35.80;;
5295;SDS011;2670;42.720;23.336;2024-01-07T00:02:43;73.03;;;34.73;;
5295;SDS011;2670;42.720;23.336;2024-01-07T00:05:10;90.10;;;40.50;;
5295;SDS011;2670;42.720;23.336;2024-01-07T00:07:36;90.67;;;39.57;;
5295;SDS011;2670;42.720;23.336;2024-01-07T00:10:03;71.93;;;34.73;;
5295;SDS011;2670;42.720;23.336;2024-01-07T00:12:30;75.87;;;34.80;;
5295;SDS011;2670;42.720;23.336;2024-01-07T00:14:57;87.53;;;38.60;;
5295;SDS011;2670;42.720;23.336;2024-01-07T00:17:23;74.43;;;36.20;;
5295;SDS011;2670;42.720;23.336;2024-01-07T00:19:50;83.17;;;35.30;;
5295;SDS011;2670;42.720;23.336;2024-01-07T00:22:16;90.20;;;37.73;;
5295;SDS011;2670;42.720;23.336;2024-01-07T00:24:43;73.73;;;34.40;;
5295;SDS011;2670;42.720;23.336;2024-01-07T00:27:09;60.67;;;31.27;;
5295;SDS011;2670;42.720;23.336;2024-01-07T00:29:36;57.03;;;28.40;;
5295;SDS011;2670;42.720;23.336;2024-01-07T00:32:02;55.40;;;27.77;;
5295;SDS011;2670;42.720;23.336;2024-01-07T00:34:29;47.10;;;25.00;;
5295;SDS011;2670;42.720;23.336;2024-01-07T00:36:56;55.03;;;25.90;;
5295;SDS011;2670;42.720;23.336;2024-01-07T00:39:23;45.10;;;24.40;;
5295;SDS011;2670;42.720;23.336;2024-01-07T00:41:49;45.13;;;24.60;;
5295;SDS011;2670;42.720;23.336;2024-01-07T00:44:16;44.50;;;23.00;;
5295;SDS011;2670;42.720;23.336;2024-01-07T00:46:42;39.03;;;22.20;;
5295;SDS011;2670;42.720;23.336;2024-01-07T00:49:08;46.00;;;24.53;;
5295;SDS011;2670;42.720;23.336;2024-01-07T00:51:35;41.43;;;22.77;;
5295;SDS011;2670;42.720;23.336;2024-01-07T00:54:03;45.10;;;25.10;;
5295;SDS011;2670;42.720;23.336;2024-01-07T00:56:29;38.93;;;22.30;;
5295;SDS011;2670;42.720;23.336;2024-01-07T00:58:56;45.97;;;23.90;;
5295;SDS011;2670;42.720;23.336;2024-01-07T01:01:22;38.97;;;21.40;;
5295;SDS011;2670;42.720;23.336;2024-01-07T01:03:49;39.30;;;21.63;;
5295;SDS011;2670;42.720;23.336;2024-01-07T01:06:15;51.70;;;22.37;;
5295;SDS011;2670;42.720;23.336;2024-01-07T01:08:42;38.70;;;21.60;;
5295;SDS011;2670;42.720;23.336;2024-01-07T01:11:10;43.40;;;22.63;;
5295;SDS011;2670;42.720;23.336;2024-01-07T01:13:36;37.53;;;20.37;;
5295;SDS011;2670;42.720;23.336;2024-01-07T01:16:03;39.23;;;21.57;;
5295;SDS011;2670;42.720;23.336;2024-01-07T01:18:29;41.40;;;21.53;;
5295;SDS011;2670;42.720;23.336;2024-01-07T01:20:56;38.17;;;21.80;;
5295;SDS011;2670;42.720;23.336;2024-01-07T01:23:22;39.70;;;20.27;;
5295;SDS011;2670;42.720;23.336;2024-01-07T01:25:49;41.73;;;21.93;;
5295;SDS011;2670;42.720;23.336;2024-01-07T01:28:17;37.50;;;20.80;;
5295;SDS011;2670;42.720;23.336;2024-01-07T01:30:43;32.50;;;19.43;;
5295;SDS011;2670;42.720;23.336;2024-01-07T01:33:09;41.40;;;22.27;;
5295;SDS011;2670;42.720;23.336;2024-01-07T01:35:36;40.40;;;21.00;;
5295;SDS011;2670;42.720;23.336;2024-01-07T01:38:02;35.20;;;20.97;;
5295;SDS011;2670;42.720;23.336;2024-01-07T01:40:29;35.23;;;20.70;;
5295;SDS011;2670;42.720;23.336;2024-01-07T01:42:56;39.60;;;21.40;;
5295;SDS011;2670;42.720;23.336;2024-01-07T01:45:24;36.77;;;19.43;;
5295;SDS011;2670;42.720;23.336;2024-01-07T01:47:50;32.97;;;18.67;;
5295;SDS011;2670;42.720;23.336;2024-01-07T01:50:17;31.50;;;18.93;;
5295;SDS011;2670;42.720;23.336;2024-01-07T01:52:44;34.60;;;19.60;;
5295;SDS011;2670;42.720;23.336;2024-01-07T01:55:10;41.27;;;19.10;;
5295;SDS011;2670;42.720;23.336;2024-01-07T01:57:37;32.60;;;18.53;;
5295;SDS011;2670;42.720;23.336;2024-01-07T02:00:05;40.40;;;20.70;;
5295;SDS011;2670;42.720;23.336;2024-01-07T02:02:33;38.90;;;20.70;;
5295;SDS011;2670;42.720;23.336;2024-01-07T02:05:00;40.07;;;21.17;;
5295;SDS011;2670;42.720;23.336;2024-01-07T02:07:26;35.90;;;19.87;;
5295;SDS011;2670;42.720;23.336;2024-01-07T02:09:53;35.63;;;20.20;;
5295;SDS011;2670;42.720;23.336;2024-01-07T02:12:20;37.43;;;20.30;;
5295;SDS011;2670;42.720;23.336;2024-01-07T02:14:46;38.23;;;20.97;;
5295;SDS011;2670;42.720;23.336;2024-01-07T02:17:13;37.67;;;19.83;;
5295;SDS011;2670;42.720;23.336;2024-01-07T02:19:41;40.10;;;22.77;;
5295;SDS011;2670;42.720;23.336;2024-01-07T02:22:07;39.17;;;22.27;;
5295;SDS011;2670;42.720;23.336;2024-01-07T02:24:35;42.47;;;22.63;;
5295;SDS011;2670;42.720;23.336;2024-01-07T02:27:01;45.20;;;21.77;;
5295;SDS011;2670;42.720;23.336;2024-01-07T02:29:28;44.37;;;22.10;;
5295;SDS011;2670;42.720;23.336;2024-01-07T02:31:54;39.53;;;22.33;;
5295;SDS011;2670;42.720;23.336;2024-01-07T02:34:21;39.73;;;22.53;;
5295;SDS011;2670;42.720;23.336;2024-01-07T02:36:47;41.47;;;23.60;;
5295;SDS011;2670;42.720;23.336;2024-01-07T02:39:14;45.07;;;22.20;;
5295;SDS011;2670;42.720;23.336;2024-01-07T02:41:42;41.90;;;22.70;;
5295;SDS011;2670;42.720;23.336;2024-01-07T02:44:08;45.50;;;21.50;;
5295;SDS011;2670;42.720;23.336;2024-01-07T02:46:34;42.77;;;22.90;;
5295;SDS011;2670;42.720;23.336;2024-01-07T02:49:01;34.73;;;22.13;;
5295;SDS011;2670;42.720;23.336;2024-01-07T02:51:27;35.30;;;21.60;;
5295;SDS011;2670;42.720;23.336;2024-01-07T02:53:54;39.27;;;23.10;;
5295;SDS011;2670;42.720;23.336;2024-01-07T02:56:20;40.20;;;21.47;;
5295;SDS011;2670;42.720;23.336;2024-01-07T02:58:48;35.97;;;21.90;;
5295;SDS011;2670;42.720;23.336;2024-01-07T03:01:14;34.57;;;21.07;;
5295;SDS011;2670;42.720;23.336;2024-01-07T03:03:41;36.17;;;21.07;;
5295;SDS011;2670;42.720;23.336;2024-01-07T03:06:07;39.83;;;22.57;;
5295;SDS011;2670;42.720;23.336;2024-01-07T03:08:34;40.70;;;22.40;;
5295;SDS011;2670;42.720;23.336;2024-01-07T03:11:04;37.00;;;21.80;;
5295;SDS011;2670;42.720;23.336;2024-01-07T03:13:30;40.43;;;23.80;;
5295;SDS011;2670;42.720;23.336;2024-01-07T03:15:58;43.00;;;24.80;;
5295;SDS011;2670;42.720;23.336;2024-01-07T03:18:24;36.97;;;23.40;;
5295;SDS011;2670;42.720;23.336;2024-01-07T03:20:51;35.80;;;22.67;;
5295;SDS011;2670;42.720;23.336;2024-01-07T03:23:17;41.57;;;22.20;;
5295;SDS011;2670;42.720;23.336;2024-01-07T03:25:44;31.60;;;21.07;;
5295;SDS011;2670;42.720;23.336;2024-01-07T03:28:11;36.07;;;19.90;;
5295;SDS011;2670;42.720;23.336;2024-01-07T03:30:37;31.20;;;18.37;;
5295;SDS011;2670;42.720;23.336;2024-01-07T03:33:05;28.23;;;16.00;;
5295;SDS011;2670;42.720;23.336;2024-01-07T03:35:31;26.57;;;15.67;;
5295;SDS011;2670;42.720;23.336;2024-01-07T03:37:58;26.40;;;15.23;;
5295;SDS011;2670;42.720;23.336;2024-01-07T03:40:24;30.27;;;15.00;;
5295;SDS011;2670;42.720;23.336;2024-01-07T03:42:51;27.97;;;15.77;;
5295;SDS011;2670;42.720;23.336;2024-01-07T03:45:17;26.40;;;14.90;;
5295;SDS011;2670;42.720;23.336;2024-01-07T03:47:44;35.13;;;18.53;;
5295;SDS011;2670;42.720;23.336;2024-01-07T03:50:12;27.90;;;15.93;;
5295;SDS011;2670;42.720;23.336;2024-01-07T03:52:38;27.87;;;15.70;;
5295;SDS011;2670;42.720;23.336;2024-01-07T03:55:05;28.30;;;13.80;;
5295;SDS011;2670;42.720;23.336;2024-01-07T03:57:32;29.17;;;12.97;;
5295;SDS011;2670;42.720;23.336;2024-01-07T03:59:59;21.70;;;12.50;;
5295;SDS011;2670;42.720;23.336;2024-01-07T04:02:25;19.20;;;12.53;;
5295;SDS011;2670;42.720;23.336;2024-01-07T04:04:52;23.50;;;13.13;;
5295;SDS011;2670;42.720;23.336;2024-01-07T04:07:19;21.10;;;11.63;;
5295;SDS011;2670;42.720;23.336;2024-01-07T04:09:46;31.50;;;14.37;;
5295;SDS011;2670;42.720;23.336;2024-01-07T04:12:12;19.20;;;12.97;;
5295;SDS011;2670;42.720;23.336;2024-01-07T04:14:39;25.17;;;11.93;;
5295;SDS011;2670;42.720;23.336;2024-01-07T04:17:05;18.60;;;9.27;;
5295;SDS011;2670;42.720;23.336;2024-01-07T04:19:33;16.77;;;11.07;;
5295;SDS011;2670;42.720;23.336;2024-01-07T04:21:59;15.73;;;8.43;;
5295;SDS011;2670;42.720;23.336;2024-01-07T04:24:27;19.03;;;10.00;;
5295;SDS011;2670;42.720;23.336;2024-01-07T04:26:53;14.60;;;7.90;;
5295;SDS011;2670;42.720;23.336;2024-01-07T04:29:20;14.13;;;8.60;;
5295;SDS011;2670;42.720;23.336;2024-01-07T04:31:46;12.23;;;8.07;;
5295;SDS011;2670;42.720;23.336;2024-01-07T04:34:12;10.60;;;6.83;;
5295;SDS011;2670;42.720;23.336;2024-01-07T04:36:38;12.13;;;7.10;;
5295;SDS011;2670;42.720;23.336;2024-01-07T04:39:05;14.20;;;8.47;;
5295;SDS011;2670;42.720;23.336;2024-01-07T04:41:33;15.97;;;10.83;;
5295;SDS011;2670;42.720;23.336;2024-01-07T04:43:59;15.70;;;10.47;;
5295;SDS011;2670;42.720;23.336;2024-01-07T04:46:25;16.60;;;10.67;;
5295;SDS011;2670;42.720;23.336;2024-01-07T04:48:52;17.00;;;11.40;;
5295;SDS011;2670;42.720;23.336;2024-01-07T04:51:18;20.40;;;11.87;;
5295;SDS011;2670;42.720;23.336;2024-01-07T04:53:45;17.30;;;10.57;;
5295;SDS011;2670;42.720;23.336;2024-01-07T04:56:11;29.93;;;13.20;;
5295;SDS011;2670;42.720;23.336;2024-01-07T04:58:39;29.37;;;16.23;;
5295;SDS011;2670;42.720;23.336;2024-01-07T05:01:06;28.57;;;16.33;;
5295;SDS011;2670;42.720;23.336;2024-01-07T05:03:32;32.60;;;17.73;;
5295;SDS011;2670;42.720;23.336;2024-01-07T05:05:59;26.87;;;14.40;;
5295;SDS011;2670;42.720;23.336;2024-01-07T05:08:26;21.23;;;13.70;;
5295;SDS011;2670;42.720;23.336;2024-01-07T05:10:53;22.67;;;13.20;;
5295;SDS011;2670;42.720;23.336;2024-01-07T05:13:19;26.60;;;12.70;;
5295;SDS011;2670;42.720;23.336;2024-01-07T05:15:47;25.57;;;12.60;;
5295;SDS011;2670;42.720;23.336;2024-01-07T05:18:18;27.23;;;13.23;;
5295;SDS011;2670;42.720;23.336;2024-01-07T05:20:44;21.70;;;14.77;;
5295;SDS011;2670;42.720;23.336;2024-01-07T05:23:11;35.87;;;21.07;;
5295;SDS011;2670;42.720;23.336;2024-01-07T05:25:37;27.53;;;17.00;;
5295;SDS011;2670;42.720;23.336;2024-01-07T05:28:04;31.27;;;18.97;;
5295;SDS011;2670;42.720;23.336;2024-01-07T05:30:31;27.80;;;17.30;;
5295;SDS011;2670;42.720;23.336;2024-01-07T05:32:59;27.03;;;15.80;;
5295;SDS011;2670;42.720;23.336;2024-01-07T05:35:25;22.00;;;13.57;;
5295;SDS011;2670;42.720;23.336;2024-01-07T05:37:52;23.63;;;13.20;;
5295;SDS011;2670;42.720;23.336;2024-01-07T05:40:19;25.70;;;14.63;;
5295;SDS011;2670;42.720;23.336;2024-01-07T05:42:45;22.67;;;13.93;;
5295;SDS011;2670;42.720;23.336;2024-01-07T05:45:11;24.70;;;12.27;;
5295;SDS011;2670;42.720;23.336;2024-01-07T05:47:38;34.77;;;19.97;;
5295;SDS011;2670;42.720;23.336;2024-01-07T05:50:07;26.50;;;19.00;;
5295;SDS011;2670;42.720;23.336;2024-01-07T05:52:33;31.83;;;16.43;;
5295;SDS011;2670;42.720;23.336;2024-01-07T05:54:59;40.30;;;18.93;;
5295;SDS011;2670;42.720;23.336;2024-01-07T05:57:25;36.97;;;16.50;;
5295;SDS011;2670;42.720;23.336;2024-01-07T05:59:52;28.47;;;15.77;;
5295;SDS011;2670;42.720;23.336;2024-01-07T06:02:18;29.10;;;16.30;;
5295;SDS011;2670;42.720;23.336;2024-01-07T06:04:46;41.33;;;22.23;;
5295;SDS011;2670;42.720;23.336;2024-01-07T06:07:14;39.10;;;22.03;;
5295;SDS011;2670;42.720;23.336;2024-01-07T06:09:40;31.50;;;19.37;;
5295;SDS011;2670;42.720;23.336;2024-01-07T06:12:07;24.67;;;16.60;;
5295;SDS011;2670;42.720;23.336;2024-01-07T06:14:33;35.73;;;19.97;;
5295;SDS011;2670;42.720;23.336;2024-01-07T06:17:00;29.57;;;15.43;;
5295;SDS011;2670;42.720;23.336;2024-01-07T06:19:26;32.63;;;16.47;;
5295;SDS011;2670;42.720;23.336;2024-01-07T06:21:53;24.47;;;16.47;;
5295;SDS011;2670;42.720;23.336;2024-01-07T06:24:20;33.27;;;17.00;;
5295;SDS011;2670;42.720;23.336;2024-01-07T06:26:47;25.53;;;16.30;;
5295;SDS011;2670;42.720;23.336;2024-01-07T06:29:13;34.63;;;17.20;;
5295;SDS011;2670;42.720;23.336;2024-01-07T06:31:42;48.10;;;28.27;;
5295;SDS011;2670;42.720;23.336;2024-01-07T06:34:09;56.07;;;32.70;;
5295;SDS011;2670;42.720;23.336;2024-01-07T06:36:38;56.93;;;34.93;;
5295;SDS011;2670;42.720;23.336;2024-01-07T06:39:05;55.67;;;32.50;;
5295;SDS011;2670;42.720;23.336;2024-01-07T06:41:34;75.87;;;37.90;;
5295;SDS011;2670;42.720;23.336;2024-01-07T06:44:01;58.90;;;30.70;;
5295;SDS011;2670;42.720;23.336;2024-01-07T06:46:27;48.57;;;30.47;;
5295;SDS011;2670;42.720;23.336;2024-01-07T06:48:54;61.93;;;31.13;;
5295;SDS011;2670;42.720;23.336;2024-01-07T06:51:20;62.03;;;37.20;;
5295;SDS011;2670;42.720;23.336;2024-01-07T06:53:47;80.70;;;42.00;;
5295;SDS011;2670;42.720;23.336;2024-01-07T06:56:15;48.50;;;30.90;;
5295;SDS011;2670;42.720;23.336;2024-01-07T06:58:43;35.20;;;21.57;;
5295;SDS011;2670;42.720;23.336;2024-01-07T07:01:10;31.03;;;17.17;;
5295;SDS011;2670;42.720;23.336;2024-01-07T07:03:36;32.97;;;18.83;;
5295;SDS011;2670;42.720;23.336;2024-01-07T07:06:03;39.83;;;23.43;;
5295;SDS011;2670;42.720;23.336;2024-01-07T07:08:29;46.30;;;24.33;;
5295;SDS011;2670;42.720;23.336;2024-01-07T07:10:56;47.67;;;23.97;;
5295;SDS011;2670;42.720;23.336;2024-01-07T07:13:22;36.73;;;20.50;;
5295;SDS011;2670;42.720;23.336;2024-01-07T07:15:50;31.47;;;19.93;;
5295;SDS011;2670;42.720;23.336;2024-01-07T07:18:17;73.03;;;32.33;;
5295;SDS011;2670;42.720;23.336;2024-01-07T07:20:43;48.50;;;27.40;;
5295;SDS011;2670;42.720;23.336;2024-01-07T07:23:09;93.40;;;54.57;;
5295;SDS011;2670;42.720;23.336;2024-01-07T07:25:36;47.83;;;29.37;;
5295;SDS011;2670;42.720;23.336;2024-01-07T07:28:02;41.73;;;24.90;;
5295;SDS011;2670;42.720;23.336;2024-01-07T07:30:29;19.33;;;12.30;;
5295;SDS011;2670;42.720;23.336;2024-01-07T07:32:57;36.70;;;15.07;;
5295;SDS011;2670;42.720;23.336;2024-01-07T07:35:24;21.60;;;13.30;;
5295;SDS011;2670;42.720;23.336;2024-01-07T07:37:50;27.30;;;15.77;;
5295;SDS011;2670;42.720;23.336;2024-01-07T07:40:16;42.53;;;26.97;;
5295;SDS011;2670;42.720;23.336;2024-01-07T07:42:43;47.33;;;24.30;;
5295;SDS011;2670;42.720;23.336;2024-01-07T07:45:10;48.83;;;29.37;;
5295;SDS011;2670;42.720;23.336;2024-01-07T07:47:36;63.40;;;33.80;;
5295;SDS011;2670;42.720;23.336;2024-01-07T07:50:07;62.17;;;31.40;;
5295;SDS011;2670;42.720;23.336;2024-01-07T07:52:34;48.13;;;26.70;;
5295;SDS011;2670;42.720;23.336;2024-01-07T07:55:01;53.17;;;29.10;;
5295;SDS011;2670;42.720;23.336;2024-01-07T07:57:27;54.07;;;31.93;;
5295;SDS011;2670;42.720;23.336;2024-01-07T07:59:54;44.80;;;30.07;;
5295;SDS011;2670;42.720;23.336;2024-01-07T08:02:20;40.47;;;23.20;;
5295;SDS011;2670;42.720;23.336;2024-01-07T08:04:47;50.60;;;25.60;;
5295;SDS011;2670;42.720;23.336;2024-01-07T08:07:15;44.63;;;28.90;;
5295;SDS011;2670;42.720;23.336;2024-01-07T08:09:41;49.67;;;30.53;;
5295;SDS011;2670;42.720;23.336;2024-01-07T08:12:07;50.97;;;25.93;;
5295;SDS011;2670;42.720;23.336;2024-01-07T08:14:34;45.27;;;25.00;;
5295;SDS011;2670;42.720;23.336;2024-01-07T08:17:00;44.27;;;27.20;;
5295;SDS011;2670;42.720;23.336;2024-01-07T08:19:28;44.07;;;26.07;;
5295;SDS011;2670;42.720;23.336;2024-01-07T08:21:54;50.13;;;29.27;;
5295;SDS011;2670;42.720;23.336;2024-01-07T08:24:23;48.27;;;29.67;;
5295;SDS011;2670;42.720;23.336;2024-01-07T08:26:49;51.33;;;29.47;;
5295;SDS011;2670;42.720;23.336;2024-01-07T08:29:16;51.20;;;28.80;;
5295;SDS011;2670;42.720;23.336;2024-01-07T08:31:43;49.07;;;28.00;;
5295;SDS011;2670;42.720;23.336;2024-01-07T08:34:09;58.70;;;33.40;;
5295;SDS011;2670;42.720;23.336;2024-01-07T08:36:36;58.43;;;29.50;;
5295;SDS011;2670;42.720;23.336;2024-01-07T08:39:03;54.20;;;25.90;;
5295;SDS011;2670;42.720;23.336;2024-01-07T08:41:31;45.33;;;28.40;;
5295;SDS011;2670;42.720;23.336;2024-01-07T08:43:57;52.33;;;31.90;;
5295;SDS011;2670;42.720;23.336;2024-01-07T08:46:24;45.70;;;28.20;;
5295;SDS011;2670;42.720;23.336;2024-01-07T08:48:50;49.37;;;30.50;;
5295;SDS011;2670;42.720;23.336;2024-01-07T08:51:17;38.47;;;24.10;;
5295;SDS011;2670;42.720;23.336;2024-01-07T08:53:43;36.50;;;23.20;;
5295;SDS011;2670;42.720;23.336;2024-01-07T08:56:10;38.27;;;20.00;;
5295;SDS011;2670;42.720;23.336;2024-01-07T08:58:40;35.70;;;20.17;;
5295;SDS011;2670;42.720;23.336;2024-01-07T09:01:06;33.90;;;21.80;;
5295;SDS011;2670;42.720;23.336;2024-01-07T09:03:33;39.13;;;20.30;;
5295;SDS011;2670;42.720;23.336;2024-01-07T09:05:59;30.80;;;18.37;;
5295;SDS011;2670;42.720;23.336;2024-01-07T09:08:26;40.90;;;20.67;;
5295;SDS011;2670;42.720;23.336;2024-01-07T09:10:51;26.27;;;17.07;;
5295;SDS011;2670;42.720;23.336;2024-01-07T09:13:18;25.53;;;16.40;;
5295;SDS011;2670;42.720;23.336;2024-01-07T09:15:45;29.93;;;16.93;;
5295;SDS011;2670;42.720;23.336;2024-01-07T09:18:12;25.43;;;16.80;;
5295;SDS011;2670;42.720;23.336;2024-01-07T09:20:38;25.40;;;15.63;;
5295;SDS011;2670;42.720;23.336;2024-01-07T09:23:05;27.50;;;15.00;;
5295;SDS011;2670;42.720;23.336;2024-01-07T09:25:31;25.40;;;15.80;;
5295;SDS011;2670;42.720;23.336;2024-01-07T09:27:58;30.90;;;17.43;;
5295;SDS011;2670;42.720;23.336;2024-01-07T09:30:24;23.67;;;16.13;;
5295;SDS011;2670;42.720;23.336;2024-01-07T09:32:52;33.30;;;18.70;;
5295;SDS011;2670;42.720;23.336;2024-01-07T09:35:18;36.17;;;19.00;;
5295;SDS011;2670;42.720;23.336;2024-01-07T09:37:45;29.30;;;18.00;;
5295;SDS011;2670;42.720;23.336;2024-01-07T09:40:12;33.13;;;18.67;;
5295;SDS011;2670;42.720;23.336;2024-01-07T09:42:38;27.10;;;14.50;;
5295;SDS011;2670;42.720;23.336;2024-01-07T09:45:05;25.53;;;15.13;;
5295;SDS011;2670;42.720;23.336;2024-01-07T09:47:31;33.03;;;18.70;;
5295;SDS011;2670;42.720;23.336;2024-01-07T09:49:59;30.00;;;18.70;;
5295;SDS011;2670;42.720;23.336;2024-01-07T09:52:26;33.60;;;16.90;;
5295;SDS011;2670;42.720;23.336;2024-01-07T09:54:58;27.97;;;15.87;;
5295;SDS011;2670;42.720;23.336;2024-01-07T09:57:25;25.23;;;15.30;;
5295;SDS011;2670;42.720;23.336;2024-01-07T09:59:52;25.27;;;15.07;;
5295;SDS011;2670;42.720;23.336;2024-01-07T10:02:18;32.03;;;12.43;;
5295;SDS011;2670;42.720;23.336;2024-01-07T10:04:45;23.20;;;17.37;;
5295;SDS011;2670;42.720;23.336;2024-01-07T10:07:14;31.20;;;15.77;;
5295;SDS011;2670;42.720;23.336;2024-01-07T10:09:41;28.10;;;18.67;;
5295;SDS011;2670;42.720;23.336;2024-01-07T10:12:08;16.47;;;12.47;;
5295;SDS011;2670;42.720;23.336;2024-01-07T10:14:35;17.80;;;10.50;;
5295;SDS011;2670;42.720;23.336;2024-01-07T10:17:01;16.20;;;10.23;;
5295;SDS011;2670;42.720;23.336;2024-01-07T10:19:28;14.53;;;9.90;;
5295;SDS011;2670;42.720;23.336;2024-01-07T10:22:00;14.30;;;9.10;;
5295;SDS011;2670;42.720;23.336;2024-01-07T10:24:32;19.33;;;10.53;;
5295;SDS011;2670;42.720;23.336;2024-01-07T10:27:01;15.37;;;10.70;;
5295;SDS011;2670;42.720;23.336;2024-01-07T10:29:27;24.53;;;14.00;;
5295;SDS011;2670;42.720;23.336;2024-01-07T10:31:55;25.83;;;16.83;;
5295;SDS011;2670;42.720;23.336;2024-01-07T10:34:22;28.20;;;15.77;;
5295;SDS011;2670;42.720;23.336;2024-01-07T10:36:49;28.43;;;16.00;;
5295;SDS011;2670;42.720;23.336;2024-01-07T10:39:17;28.77;;;16.40;;
5295;SDS011;2670;42.720;23.336;2024-01-07T10:41:45;30.00;;;17.63;;
5295;SDS011;2670;42.720;23.336;2024-01-07T10:44:12;31.20;;;18.63;;
5295;SDS011;2670;42.720;23.336;2024-01-07T10:46:39;42.23;;;21.07;;
5295;SDS011;2670;42.720;23.336;2024-01-07T10:49:07;36.67;;;19.67;;
5295;SDS011;2670;42.720;23.336;2024-01-07T10:51:36;32.00;;;19.00;;
5295;SDS011;2670;42.720;23.336;2024-01-07T10:54:03;27.57;;;16.13;;
5295;SDS011;2670;42.720;23.336;2024-01-07T10:56:32;26.83;;;16.83;;
5295;SDS011;2670;42.720;23.336;2024-01-07T10:59:00;29.17;;;17.67;;
5295;SDS011;2670;42.720;23.336;2024-01-07T11:01:29;26.50;;;15.60;;
5295;SDS011;2670;42.720;23.336;2024-01-07T11:03:57;32.23;;;13.20;;
5295;SDS011;2670;42.720;23.336;2024-01-07T11:06:26;16.00;;;11.13;;
5295;SDS011;2670;42.720;23.336;2024-01-07T11:08:54;25.23;;;15.50;;
5295;SDS011;2670;42.720;23.336;2024-01-07T11:11:23;25.73;;;16.80;;
5295;SDS011;2670;42.720;23.336;2024-01-07T11:13:51;25.33;;;15.90;;
5295;SDS011;2670;42.720;23.336;2024-01-07T11:16:40;27.87;;;16.93;;
5295;SDS011;2670;42.720;23.336;2024-01-07T11:19:07;23.60;;;15.73;;
5295;SDS011;2670;42.720;23.336;2024-01-07T11:21:33;17.37;;;12.17;;
5295;SDS011;2670;42.720;23.336;2024-01-07T11:23:59;17.00;;;10.07;;
5295;SDS011;2670;42.720;23.336;2024-01-07T11:26:28;21.30;;;15.83;;
5295;SDS011;2670;42.720;23.336;2024-01-07T11:28:54;17.40;;;11.77;;
5295;SDS011;2670;42.720;23.336;2024-01-07T11:31:25;22.27;;;11.33;;
5295;SDS011;2670;42.720;23.336;2024-01-07T11:34:09;17.70;;;10.40;;
5295;SDS011;2670;42.720;23.336;2024-01-07T11:36:36;17.87;;;10.87;;
5295;SDS011;2670;42.720;23.336;2024-01-07T11:39:02;15.27;;;9.97;;
5295;SDS011;2670;42.720;23.336;2024-01-07T11:41:32;12.27;;;8.17;;
5295;SDS011;2670;42.720;23.336;2024-01-07T11:43:59;18.30;;;7.80;;
5295;SDS011;2670;42.720;23.336;2024-01-07T11:46:26;13.10;;;8.40;;
5295;SDS011;2670;42.720;23.336;2024-01-07T11:48:53;15.70;;;9.00;;
5295;SDS011;2670;42.720;23.336;2024-01-07T11:51:24;17.13;;;8.40;;
5295;SDS011;2670;42.720;23.336;2024-01-07T11:53:51;12.60;;;8.90;;
5295;SDS011;2670;42.720;23.336;2024-01-07T11:56:17;15.00;;;8.77;;
5295;SDS011;2670;42.720;23.336;2024-01-07T11:58:44;7.23;;;4.90;;
5295;SDS011;2670;42.720;23.336;2024-01-07T12:01:10;12.10;;;4.23;;
5295;SDS011;2670;42.720;23.336;2024-01-07T12:03:37;9.80;;;4.20;;
5295;SDS011;2670;42.720;23.336;2024-01-07T12:06:04;5.43;;;3.43;;
5295;SDS011;2670;42.720;23.336;2024-01-07T12:08:31;3.73;;;3.03;;
5295;SDS011;2670;42.720;23.336;2024-01-07T12:11:01;6.50;;;3.33;;
5295;SDS011;2670;42.720;23.336;2024-01-07T12:13:28;11.23;;;4.83;;
5295;SDS011;2670;42.720;23.336;2024-01-07T12:15:54;3.47;;;3.00;;
5295;SDS011;2670;42.720;23.336;2024-01-07T12:18:21;8.73;;;5.17;;
5295;SDS011;2670;42.720;23.336;2024-01-07T12:20:56;8.33;;;3.40;;
5295;SDS011;2670;42.720;23.336;2024-01-07T12:23:23;7.27;;;4.07;;
5295;SDS011;2670;42.720;23.336;2024-01-07T12:25:51;6.97;;;4.27;;
5295;SDS011;2670;42.720;23.336;2024-01-07T12:28:18;6.37;;;4.57;;
5295;SDS011;2670;42.720;23.336;2024-01-07T12:30:44;11.07;;;6.73;;
5295;SDS011;2670;42.720;23.336;2024-01-07T12:33:11;11.17;;;5.60;;
5295;SDS011;2670;42.720;23.336;2024-01-07T12:35:37;6.43;;;3.40;;
5295;SDS011;2670;42.720;23.336;2024-01-07T12:38:04;5.90;;;4.10;;
5295;SDS011;2670;42.720;23.336;2024-01-07T12:40:31;6.73;;;3.80;;
5295;SDS011;2670;42.720;23.336;2024-01-07T12:42:59;3.90;;;3.50;;
5295;SDS011;2670;42.720;23.336;2024-01-07T12:45:25;10.23;;;4.47;;
5295;SDS011;2670;42.720;23.336;2024-01-07T12:47:52;12.57;;;4.53;;
5295;SDS011;2670;42.720;23.336;2024-01-07T12:50:19;7.50;;;4.13;;
5295;SDS011;2670;42.720;23.336;2024-01-07T12:52:48;13.90;;;5.67;;
5295;SDS011;2670;42.720;23.336;2024-01-07T12:55:14;15.40;;;8.10;;
5295;SDS011;2670;42.720;23.336;2024-01-07T12:57:41;12.13;;;7.17;;
5295;SDS011;2670;42.720;23.336;2024-01-07T13:00:09;10.47;;;5.90;;
5295;SDS011;2670;42.720;23.336;2024-01-07T13:02:36;9.10;;;5.03;;
5295;SDS011;2670;42.720;23.336;2024-01-07T13:05:03;6.87;;;4.80;;
5295;SDS011;2670;42.720;23.336;2024-01-07T13:07:30;7.67;;;5.00;;
5295;SDS011;2670;42.720;23.336;2024-01-07T13:09:56;8.27;;;5.30;;
5295;SDS011;2670;42.720;23.336;2024-01-07T13:12:23;10.77;;;5.97;;
5295;SDS011;2670;42.720;23.336;2024-01-07T13:14:49;10.77;;;6.83;;
5295;SDS011;2670;42.720;23.336;2024-01-07T13:17:17;11.53;;;8.70;;
5295;SDS011;2670;42.720;23.336;2024-01-07T13:19:44;9.90;;;5.80;;
5295;SDS011;2670;42.720;23.336;2024-01-07T13:22:10;10.63;;;5.80;;
5295;SDS011;2670;42.720;23.336;2024-01-07T13:24:37;7.17;;;4.53;;
5295;SDS011;2670;42.720;23.336;2024-01-07T13:27:03;10.60;;;4.60;;
5295;SDS011;2670;42.720;23.336;2024-01-07T13:29:30;17.23;;;5.27;;
5295;SDS011;2670;42.720;23.336;2024-01-07T13:31:56;15.60;;;4.93;;
5295;SDS011;2670;42.720;23.336;2024-01-07T13:34:24;10.80;;;4.40;;
5295;SDS011;2670;42.720;23.336;2024-01-07T13:36:51;41.93;;;22.23;;
5295;SDS011;2670;42.720;23.336;2024-01-07T13:39:17;24.00;;;13.20;;
5295;SDS011;2670;42.720;23.336;2024-01-07T13:41:44;26.10;;;11.87;;
5295;SDS011;2670;42.720;23.336;2024-01-07T13:44:10;23.90;;;11.93;;
5295;SDS011;2670;42.720;23.336;2024-01-07T13:46:42;23.63;;;11.50;;
5295;SDS011;2670;42.720;23.336;2024-01-07T13:49:09;34.30;;;10.80;;
5295;SDS011;2670;42.720;23.336;2024-01-07T13:51:37;23.53;;;6.60;;
5295;SDS011;2670;42.720;23.336;2024-01-07T13:54:03;17.20;;;7.53;;
5295;SDS011;2670;42.720;23.336;2024-01-07T13:56:31;16.40;;;10.30;;
5295;SDS011;2670;42.720;23.336;2024-01-07T13:59:00;10.13;;;5.93;;
5295;SDS011;2670;42.720;23.336;2024-01-07T14:01:27;12.27;;;7.17;;
5295;SDS011;2670;42.720;23.336;2024-01-07T14:03:53;13.90;;;8.33;;
5295;SDS011;2670;42.720;23.336;2024-01-07T14:06:20;19.50;;;10.13;;
5295;SDS011;2670;42.720;23.336;2024-01-07T14:08:47;125.10;;;48.93;;
5295;SDS011;2670;42.720;23.336;2024-01-07T14:11:14;120.77;;;49.10;;
5295;SDS011;2670;42.720;23.336;2024-01-07T14:13:40;49.53;;;26.70;;
5295;SDS011;2670;42.720;23.336;2024-01-07T14:16:09;43.00;;;22.63;;
5295;SDS011;2670;42.720;23.336;2024-01-07T14:18:36;47.53;;;22.83;;
5295;SDS011;2670;42.720;23.336;2024-01-07T14:21:02;50.30;;;31.13;;
5295;SDS011;2670;42.720;23.336;2024-01-07T14:23:29;54.17;;;30.50;;
5295;SDS011;2670;42.720;23.336;2024-01-07T14:25:57;89.53;;;43.70;;
5295;SDS011;2670;42.720;23.336;2024-01-07T14:28:24;129.70;;;54.20;;
5295;SDS011;2670;42.720;23.336;2024-01-07T14:30:50;148.37;;;60.60;;
5295;SDS011;2670;42.720;23.336;2024-01-07T14:33:17;99.23;;;40.63;;
5295;SDS011;2670;42.720;23.336;2024-01-07T14:35:43;106.20;;;42.70;;